Time;durP1;ratioP1;P1;durP2;ratioP2;P2;SDS_P1;SDS_P2;PMS_P1;PMS_P2;Temp;Humidity;BMP_temperature;BMP_pressure;BME280_temperature;BME280_humidity;BME280_pressure;Samples;Min_cycle;Max_cycle;Signal;HPM_P1;HPM_P2
2022/08/15 00:00:08;;;;;;;4.57;3.78;;;;;;;19.73;100.00;94870.69;1030073;28;20036;-71
2022/08/15 00:00:40;;;;;;;4.68;3.92;;;;;;;19.75;100.00;94873.78;1025675;28;20018;-71
2022/08/15 00:01:14;;;;;;;7.18;3.55;;;;;;;19.75;100.00;94868.44;1020916;29;20130;-71
2022/08/15 00:01:44;;;;;;;5.93;3.40;;;;;;;19.76;100.00;94870.03;1019503;28;20353;-72
2022/08/15 00:02:17;;;;;;;7.20;3.25;;;;;;;19.69;100.00;94854.63;1026799;28;20034;-72
2022/08/15 00:02:48;;;;;;;4.20;3.38;;;;;;;19.76;100.00;94872.69;1026054;28;20030;-71
2022/08/15 00:03:29;;;;;;;4.22;3.22;;;;;;;19.70;100.00;94864.16;1021827;28;20811;-72
2022/08/15 00:04:04;;;;;;;4.82;3.58;;;;;;;19.76;100.00;94868.13;1021851;28;20456;-72
2022/08/15 00:04:35;;;;;;;4.07;3.38;;;;;;;19.71;100.00;94856.94;1021992;29;20140;-71
2022/08/15 00:05:07;;;;;;;7.15;3.58;;;;;;;19.79;100.00;94864.00;1021929;29;20743;-72
2022/08/15 00:05:37;;;;;;;5.55;3.60;;;;;;;19.77;100.00;94860.91;1015058;29;20064;-72
2022/08/15 00:06:09;;;;;;;4.55;3.42;;;;;;;19.70;100.00;94855.41;1018757;29;20023;-71
2022/08/15 00:06:42;;;;;;;3.97;3.08;;;;;;;19.72;100.00;94866.50;1022879;28;20055;-72
2022/08/15 00:07:13;;;;;;;8.65;3.80;;;;;;;19.74;100.00;94866.91;1026530;28;20023;-72
2022/08/15 00:07:43;;;;;;;5.85;3.42;;;;;;;19.73;100.00;94871.47;1029964;28;20351;-70
2022/08/15 00:08:14;;;;;;;5.60;3.50;;;;;;;19.75;100.00;94868.44;1025343;28;20500;-72
2022/08/15 00:08:49;;;;;;;5.50;3.53;;;;;;;19.77;100.00;94868.91;1025870;28;20023;-71
2022/08/15 00:09:22;;;;;;;3.80;3.40;;;;;;;19.75;100.00;94863.91;1022075;29;20012;-72
2022/08/15 00:09:53;;;;;;;5.68;3.10;;;;;;;19.77;100.00;94868.91;1022567;28;20118;-72
2022/08/15 00:10:23;;;;;;;4.38;3.20;;;;;;;19.77;100.00;94866.22;1020874;28;20093;-72
2022/08/15 00:11:02;;;;;;;7.32;3.50;;;;;;;19.76;100.00;94864.69;1022244;28;20023;-72
2022/08/15 00:11:35;;;;;;;7.00;3.38;;;;;;;19.75;100.00;94873.78;1025443;28;20027;-71
2022/08/15 00:12:06;;;;;;;4.72;3.63;;;;;;;19.71;100.00;94867.59;1019422;29;20024;-72
2022/08/15 00:12:38;;;;;;;5.03;3.50;;;;;;;19.71;100.00;94868.34;1015590;29;20028;-72
2022/08/15 00:13:13;;;;;;;4.85;3.78;;;;;;;19.73;100.00;94874.13;1022689;28;20043;-72
2022/08/15 00:13:46;;;;;;;8.68;3.78;;;;;;;19.72;100.00;94864.59;1026863;28;20090;-72
2022/08/15 00:14:31;;;;;;;4.65;3.60;;;;;;;19.73;100.00;94865.38;1030139;28;20447;-72
2022/08/15 00:15:09;;;;;;;6.65;3.75;;;;;;;19.65;100.00;94859.09;1018663;29;20012;-72
2022/08/15 00:15:40;;;;;;;3.92;3.55;;;;;;;19.71;100.00;94862.28;1014375;29;20163;-71
2022/08/15 00:16:13;;;;;;;5.70;3.47;;;;;;;19.67;100.00;94861.41;1010792;29;20483;-72
2022/08/15 00:16:44;;;;;;;6.32;3.60;;;;;;;19.65;100.00;94856.44;1019973;29;20036;-73
2022/08/15 00:17:15;;;;;;;5.15;3.80;;;;;;;19.68;100.00;94862.94;1014836;29;20586;-72
2022/08/15 00:17:46;;;;;;;6.00;3.20;;;;;;;19.68;100.00;94860.28;1022553;28;20035;-72
2022/08/15 00:18:17;;;;;;;3.63;3.20;;;;;;;19.65;100.00;94858.31;1022743;28;20037;-72
2022/08/15 00:18:48;;;;;;;5.55;3.85;;;;;;;19.65;100.00;94867.09;1027223;28;20034;-73
2022/08/15 00:19:20;;;;;;;3.38;3.08;;;;;;;19.66;100.00;94857.22;1026624;28;20421;-73
2022/08/15 00:19:51;;;;;;;7.80;3.83;;;;;;;19.65;100.00;94861.75;1018384;29;20046;-72
2022/08/15 00:20:21;;;;;;;7.07;3.60;;;;;;;19.64;100.00;94864.75;1018625;29;20361;-72
2022/08/15 00:20:52;;;;;;;5.70;3.75;;;;;;;19.65;100.00;94860.97;1022539;28;20028;-71
2022/08/15 00:21:23;;;;;;;3.13;2.83;;;;;;;19.66;100.00;94865.19;1026188;28;20425;-72
2022/08/15 00:21:55;;;;;;;4.82;3.28;;;;;;;19.59;100.00;94847.13;1026664;28;20042;-72
2022/08/15 00:22:25;;;;;;;5.70;3.42;;;;;;;19.68;100.00;94863.72;1018515;28;20111;-72
2022/08/15 00:22:56;;;;;;;8.77;4.03;;;;;;;19.68;100.00;94863.72;1018752;29;20035;-73
2022/08/15 00:23:26;;;;;;;6.57;3.38;;;;;;;19.62;100.00;94854.44;1018864;29;20020;-72
2022/08/15 00:23:57;;;;;;;6.25;3.70;;;;;;;19.66;100.00;94867.84;1014858;28;20031;-72
2022/08/15 00:24:29;;;;;;;8.18;3.20;;;;;;;19.59;100.00;94849.03;1026857;28;20433;-72
2022/08/15 00:25:00;;;;;;;7.93;3.83;;;;;;;19.62;100.00;94866.97;1026690;28;20767;-71
2022/08/15 00:25:31;;;;;;;5.25;3.15;;;;;;;19.62;100.00;94872.28;1027051;28;20030;-72
2022/08/15 00:26:03;;;;;;;4.07;3.30;;;;;;;19.60;100.00;94866.53;1024386;28;20027;-71
2022/08/15 00:26:34;;;;;;;5.10;3.45;;;;;;;19.61;100.00;94863.50;1022987;28;20027;-72
2022/08/15 00:27:08;;;;;;;8.20;3.28;;;;;;;19.54;100.00;94855.34;1030411;28;20139;-71
2022/08/15 00:27:38;;;;;;;4.30;3.70;;;;;;;19.59;100.00;94860.44;1031349;28;20019;-72
2022/08/15 00:28:09;;;;;;;7.70;3.53;;;;;;;19.50;100.00;94851.84;1034662;28;20022;-71
2022/08/15 00:28:39;;;;;;;6.78;3.25;;;;;;;19.58;100.00;94858.88;1030596;28;20030;-72
2022/08/15 00:29:11;;;;;;;4.55;3.08;;;;;;;19.57;100.00;94859.22;1026640;28;20440;-72
2022/08/15 00:29:41;;;;;;;6.53;3.60;;;;;;;19.60;100.00;94853.22;1018522;29;20020;-71
2022/08/15 00:30:12;;;;;;;6.60;3.30;;;;;;;19.55;100.00;94849.69;1015164;29;20024;-73
2022/08/15 00:30:43;;;;;;;7.72;3.80;;;;;;;19.57;100.00;94852.00;1010414;29;20493;-72
2022/08/15 00:31:14;;;;;;;4.88;3.10;;;;;;;19.58;100.00;94850.13;1010906;29;20511;-72
2022/08/15 00:31:44;;;;;;;5.18;3.33;;;;;;;19.58;100.00;94858.09;1014906;29;20024;-71
2022/08/15 00:32:20;;;;;;;8.85;3.35;;;;;;;19.55;100.00;94857.69;1012015;29;20104;-72
2022/08/15 00:32:55;;;;;;;5.07;3.30;;;;;;;19.51;100.00;94859.47;1022651;29;20846;-71
2022/08/15 00:33:27;;;;;;;8.52;3.45;;;;;;;19.55;100.00;94860.34;1024087;28;20421;-72
2022/08/15 00:33:59;;;;;;;6.85;3.25;;;;;;;19.47;100.00;94847.97;1027735;28;20753;-72
2022/08/15 00:34:29;;;;;;;5.10;2.90;;;;;;;19.52;100.00;94855.69;1030203;28;20030;-72
2022/08/15 00:35:00;;;;;;;4.47;3.30;;;;;;;19.49;100.00;94845.75;1022522;28;20426;-72
2022/08/15 00:35:37;;;;;;;4.32;3.30;;;;;;;19.54;100.00;94861.44;1018650;29;20088;-72
2022/08/15 00:36:07;;;;;;;7.65;3.13;;;;;;;19.47;100.00;94853.28;1026493;28;20030;-72
2022/08/15 00:36:38;;;;;;;6.28;3.80;;;;;;;19.51;100.00;94859.47;1030690;28;20049;-71
2022/08/15 00:37:08;;;;;;;6.43;3.35;;;;;;;19.52;100.00;94863.69;1030625;28;20026;-71
2022/08/15 00:37:39;;;;;;;7.30;3.85;;;;;;;19.49;100.00;94863.59;1027499;28;20480;-71
2022/08/15 00:38:12;;;;;;;5.45;3.88;;;;;;;19.44;100.00;94859.28;1031102;28;20038;-72
2022/08/15 00:38:42;;;;;;;5.55;2.97;;;;;;;19.44;100.00;94861.94;1030944;28;20158;-72
2022/08/15 00:39:12;;;;;;;6.55;3.72;;;;;;;19.43;100.00;94857.75;1022523;28;20453;-72
2022/08/15 00:39:43;;;;;;;4.18;3.20;;;;;;;19.35;100.00;94853.34;1023040;28;20034;-72
2022/08/15 00:40:14;;;;;;;5.10;4.00;;;;;;;19.38;100.00;94860.63;1018457;29;20035;-72
2022/08/15 00:41:39;;;;;;;7.43;3.67;;;;;;;19.37;100.00;94858.31;1015632;29;20075;-72
2022/08/15 00:42:09;;;;;;;6.72;3.42;;;;;;;19.35;100.00;94861.34;1021861;29;20062;-72
2022/08/15 00:42:40;;;;;;;9.38;3.80;;;;;;;19.33;100.00;94858.22;1028581;28;20029;-72
2022/08/15 00:43:10;;;;;;;4.88;3.50;;;;;;;19.33;100.00;94862.78;1026571;28;20034;-72
2022/08/15 00:43:43;;;;;;;5.70;3.92;;;;;;;19.34;100.00;94854.44;1026746;28;20089;-72
2022/08/15 00:44:29;;;;;;;5.18;3.42;;;;;;;19.33;100.00;94858.22;1023371;28;20027;-72
2022/08/15 00:45:00;;;;;;;4.15;3.30;;;;;;;19.34;100.00;94859.78;1017307;29;20433;-72
2022/08/15 00:45:30;;;;;;;3.72;3.10;;;;;;;19.34;100.00;94856.34;1022821;28;20039;-72
2022/08/15 00:46:02;;;;;;;6.75;3.58;;;;;;;19.34;100.00;94859.78;1024757;28;20041;-72
2022/08/15 00:46:32;;;;;;;7.00;3.33;;;;;;;19.37;100.00;94861.75;1027381;28;20030;-71
2022/08/15 00:47:05;;;;;;;4.05;3.17;;;;;;;19.36;100.00;94860.22;1025765;28;20035;-72
2022/08/15 00:47:36;;;;;;;8.25;3.78;;;;;;;19.34;100.00;94859.78;1027504;28;20138;-71
2022/08/15 00:48:56;;;;;;;11.32;3.78;;;;;;;19.27;100.00;94854.25;1028948;28;20026;-71
2022/08/15 00:49:28;;;;;;;5.32;3.88;;;;;;;19.30;100.00;94858.91;1023528;28;20131;-72
2022/08/15 00:49:59;;;;;;;5.25;3.38;;;;;;;19.28;100.00;94853.13;1019501;28;20039;-72
2022/08/15 00:50:30;;;;;;;5.90;3.72;;;;;;;19.33;100.00;94858.22;1025424;28;20054;-72
2022/08/15 00:51:01;;;;;;;12.32;3.40;;;;;;;19.36;100.00;94860.22;1030598;28;20106;-72
2022/08/15 00:51:49;;;;;;;4.93;3.22;;;;;;;19.35;100.00;94866.66;1027758;28;20018;-72
2022/08/15 00:52:22;;;;;;;6.55;3.28;;;;;;;19.35;100.00;94860.53;1020251;28;20027;-71
2022/08/15 00:52:52;;;;;;;5.35;3.45;;;;;;;19.35;100.00;94865.88;1017901;29;20043;-73
2022/08/15 00:53:23;;;;;;;7.50;3.50;;;;;;;19.34;100.00;94862.44;1017213;29;20433;-72
2022/08/15 00:53:56;;;;;;;6.15;3.20;;;;;;;19.24;100.00;94850.38;1016966;29;20090;-72
2022/08/15 00:54:44;;;;;;;5.80;3.60;;;;;;;19.28;100.00;94861.13;1020987;28;20038;-71
2022/08/15 00:55:15;;;;;;;4.63;2.95;;;;;;;19.28;100.00;94858.47;1021062;28;20119;-71
2022/08/15 00:55:45;;;;;;;7.13;3.13;;;;;;;19.30;100.00;94861.56;1010070;29;20445;-72
2022/08/15 00:56:16;;;;;;;6.28;3.55;;;;;;;19.30;100.00;94869.56;1014428;29;20031;-72
2022/08/15 00:56:52;;;;;;;5.07;3.58;;;;;;;19.19;100.00;94853.31;1022459;29;20587;-71
2022/08/15 00:57:31;;;;;;;5.90;3.83;;;;;;;19.23;100.00;94861.38;1018439;29;20027;-72
2022/08/15 00:58:01;;;;;;;9.40;3.30;;;;;;;19.24;100.00;94858.38;1027158;28;20105;-72
2022/08/15 00:58:32;;;;;;;5.55;3.47;;;;;;;19.24;100.00;94862.91;1026242;28;20027;-72
2022/08/15 00:59:04;;;;;;;6.50;3.40;;;;;;;19.20;100.00;94862.06;1026655;28;20022;-72
2022/08/15 00:59:37;;;;;;;4.05;3.20;;;;;;;19.29;100.00;94862.69;1020926;28;20033;-72
2022/08/15 01:00:20;;;;;;;5.15;3.25;;;;;;;19.27;100.00;94862.25;1022928;28;20023;-72
2022/08/15 01:00:51;;;;;;;5.90;3.33;;;;;;;19.29;100.00;94862.69;1021320;29;20020;-72
2022/08/15 01:01:22;;;;;;;5.57;3.30;;;;;;;19.30;100.00;94872.22;1014013;29;20447;-72
2022/08/15 01:01:52;;;;;;;4.65;3.25;;;;;;;19.28;100.00;94871.75;1019074;28;20589;-71
2022/08/15 01:02:28;;;;;;;6.63;3.10;;;;;;;19.28;100.00;94861.91;1016652;28;20020;-71
2022/08/15 01:02:59;;;;;;;5.13;3.63;;;;;;;19.30;100.00;94869.56;1026035;28;20110;-71
2022/08/15 01:03:32;;;;;;;4.50;3.30;;;;;;;19.30;100.00;94869.56;1022487;28;20019;-72
2022/08/15 01:04:02;;;;;;;7.88;3.60;;;;;;;19.31;100.00;94873.75;1024755;28;20095;-72
2022/08/15 01:04:33;;;;;;;4.57;3.00;;;;;;;19.21;100.00;94858.28;1024192;28;20121;-72
2022/08/15 01:05:08;;;;;;;5.13;3.38;;;;;;;19.28;100.00;94879.75;1017933;28;20055;-71
2022/08/15 01:05:39;;;;;;;5.68;3.38;;;;;;;19.29;100.00;94878.66;1019155;29;20105;-72
2022/08/15 01:06:09;;;;;;;6.40;3.67;;;;;;;19.27;100.00;94870.22;1015579;29;20139;-72
2022/08/15 01:06:40;;;;;;;5.20;3.22;;;;;;;19.20;100.00;94859.41;1015991;29;20039;-72
2022/08/15 01:07:10;;;;;;;9.18;3.83;;;;;;;19.25;100.00;94867.16;1018734;28;20058;-73
2022/08/15 01:07:43;;;;;;;5.90;3.50;;;;;;;19.26;100.00;94863.38;1014581;29;20032;-72
2022/08/15 01:08:16;;;;;;;5.80;3.78;;;;;;;19.27;100.00;94875.53;1022309;29;20019;-72
2022/08/15 01:08:47;;;;;;;6.65;2.92;;;;;;;19.25;100.00;94867.91;1030462;28;20057;-72
2022/08/15 01:09:17;;;;;;;6.20;3.28;;;;;;;19.27;100.00;94870.22;1017597;29;20038;-72
2022/08/15 01:09:49;;;;;;;6.10;3.17;;;;;;;19.27;100.00;94872.88;1009416;29;20091;-72
2022/08/15 01:10:19;;;;;;;4.78;3.30;;;;;;;19.27;100.00;94867.56;1017179;29;20039;-72
2022/08/15 01:10:50;;;;;;;4.68;3.20;;;;;;;19.29;100.00;94868.00;1022538;29;20023;-72
2022/08/15 01:11:46;;;;;;;4.40;3.50;;;;;;;19.28;100.00;94874.41;1020335;29;20019;-73
2022/08/15 01:12:23;;;;;;;5.65;3.22;;;;;;;19.19;100.00;94863.19;1016889;28;20032;-71
2022/08/15 01:12:54;;;;;;;4.90;3.17;;;;;;;19.24;100.00;94870.91;1027158;28;20023;-72
2022/08/15 01:13:24;;;;;;;5.30;2.88;;;;;;;19.18;100.00;94866.94;1028449;28;20058;-71
2022/08/15 01:13:56;;;;;;;4.28;3.30;;;;;;;19.16;100.00;94863.84;1020236;29;20097;-71
2022/08/15 01:14:26;;;;;;;4.15;3.38;;;;;;;19.15;100.00;94862.28;1020846;29;20771;-71
2022/08/15 01:15:00;;;;;;;8.43;3.60;;;;;;;19.16;100.00;94871.81;1022298;29;20027;-72
2022/08/15 01:15:34;;;;;;;5.28;3.03;;;;;;;19.09;100.00;94859.09;1017197;29;20039;-72
2022/08/15 01:16:05;;;;;;;6.85;2.97;;;;;;;19.16;100.00;94875.25;1018579;29;20039;-72
2022/08/15 01:16:38;;;;;;;7.78;3.55;;;;;;;19.11;100.00;94875.47;1019923;28;20263;-71
2022/08/15 01:17:09;;;;;;;6.57;3.17;;;;;;;19.13;100.00;94872.50;1016852;29;20497;-72
2022/08/15 01:17:40;;;;;;;3.83;3.42;;;;;;;19.15;100.00;94867.59;1017661;29;20035;-72
2022/08/15 01:18:10;;;;;;;6.10;3.60;;;;;;;19.08;100.00;94860.22;1017085;29;20027;-72
2022/08/15 01:18:41;;;;;;;7.95;3.20;;;;;;;19.07;100.00;94858.66;1020162;29;20031;-71
2022/08/15 01:19:21;;;;;;;7.70;3.60;;;;;;;19.12;100.00;94873.63;1023529;28;20086;-72
2022/08/15 01:19:56;;;;;;;;;;;;;;;19.12;100.00;94868.31;1024619;28;20079;-72
2022/08/15 01:20:28;;;;;;;4.07;2.97;;;;;;;19.08;100.00;94862.88;1023535;28;20343;-72
2022/08/15 01:21:03;;;;;;;6.38;3.60;;;;;;;19.06;100.00;94870.41;1021207;28;20187;-72
2022/08/15 01:21:39;;;;;;;5.78;3.13;;;;;;;19.05;100.00;94869.66;1023505;28;20189;-72
2022/08/15 01:22:47;;;;;;;6.88;3.03;;;;;;;19.05;100.00;94869.66;1026667;28;20567;-72
2022/08/15 01:23:45;;;;;;;3.55;3.15;;;;;;;19.06;100.00;94870.41;1036379;28;20048;-72
2022/08/15 01:24:21;;;;;;;5.68;3.40;;;;;;;19.06;100.00;94873.84;1034153;28;20029;-72
2022/08/15 01:24:59;;;;;;;5.15;3.28;;;;;;;19.07;100.00;94872.72;1034784;28;20049;-72
2022/08/15 01:25:34;;;;;;;6.07;3.50;;;;;;;19.03;100.00;94866.53;1034239;28;20026;-72
2022/08/15 01:26:06;;;;;;;7.88;2.97;;;;;;;19.06;100.00;94878.41;1018824;28;20020;-71
2022/08/15 01:26:37;;;;;;;8.27;3.38;;;;;;;19.01;100.00;94866.13;1026097;28;20035;-71
2022/08/15 01:27:09;;;;;;;4.68;2.97;;;;;;;19.04;100.00;94868.09;1029737;28;20092;-71
2022/08/15 01:27:46;;;;;;;4.55;3.20;;;;;;;19.04;100.00;94868.09;1029934;28;20014;-72
2022/08/15 01:28:23;;;;;;;4.65;3.30;;;;;;;19.05;100.00;94869.66;1029934;28;20105;-72
2022/08/15 01:28:55;;;;;;;7.13;3.33;;;;;;;19.03;100.00;94863.88;1025941;28;20105;-72
2022/08/15 01:29:27;;;;;;;5.80;3.30;;;;;;;19.07;100.00;94877.28;1023448;28;20696;-72
2022/08/15 01:29:57;;;;;;;5.35;3.58;;;;;;;18.99;100.00;94868.34;1019087;29;20027;-71
2022/08/15 01:30:36;;;;;;;6.07;2.92;;;;;;;19.04;100.00;94875.28;1022013;29;20496;-72
2022/08/15 01:31:15;;;;;;;4.40;3.10;;;;;;;19.01;100.00;94868.78;1018688;28;20020;-72
2022/08/15 01:31:46;;;;;;;5.63;3.50;;;;;;;19.02;100.00;94870.31;1017968;29;20016;-71
2022/08/15 01:32:16;;;;;;;5.38;3.33;;;;;;;19.06;100.00;94881.81;1021736;29;20082;-71
2022/08/15 01:32:47;;;;;;;6.68;2.90;;;;;;;19.08;100.00;94882.28;1020515;28;20078;-71
2022/08/15 01:33:19;;;;;;;6.68;3.60;;;;;;;19.09;100.00;94880.38;1017867;29;20035;-71
2022/08/15 01:33:52;;;;;;;4.15;3.45;;;;;;;19.06;100.00;94879.16;1022494;28;20027;-71
2022/08/15 01:34:23;;;;;;;4.80;3.20;;;;;;;19.02;100.00;94865.00;1022180;28;20090;-72
2022/08/15 01:35:00;;;;;;;5.25;3.22;;;;;;;19.07;100.00;94875.38;1026760;28;20555;-71
2022/08/15 01:35:31;;;;;;;12.95;4.07;;;;;;;19.10;100.00;94875.84;1030004;28;20050;-72
2022/08/15 01:36:02;;;;;;;4.43;2.80;;;;;;;19.06;100.00;94868.53;1026135;28;20031;-72
2022/08/15 01:36:33;;;;;;;4.50;2.83;;;;;;;19.11;100.00;94882.69;1026415;28;20440;-71
2022/08/15 01:37:04;;;;;;;8.00;3.10;;;;;;;19.05;100.00;94869.66;1021941;29;20082;-72
2022/08/15 01:37:36;;;;;;;4.75;3.10;;;;;;;19.11;100.00;94882.69;1022392;28;20070;-72
2022/08/15 01:38:18;;;;;;;6.43;3.22;;;;;;;19.06;100.00;94876.50;1024262;28;20121;-72
2022/08/15 01:38:52;;;;;;;5.03;3.17;;;;;;;19.07;100.00;94878.03;1010452;29;20790;-72
2022/08/15 01:39:45;;;;;;;5.43;3.33;;;;;;;19.12;100.00;94881.59;1021987;29;20397;-72
2022/08/15 01:41:04;;;;;;;10.13;3.55;;;;;;;19.11;100.00;94882.69;1026085;28;20147;-72
2022/08/15 01:42:16;;;;;;;4.75;3.15;;;;;;;19.14;100.00;94882.03;1028765;28;20843;-72
2022/08/15 01:42:48;;;;;;;4.93;2.80;;;;;;;19.14;100.00;94871.38;1028004;28;20092;-72
2022/08/15 01:43:21;;;;;;;4.63;3.08;;;;;;;19.16;100.00;94874.50;1008261;29;20558;-73
2022/08/15 01:43:57;;;;;;;5.10;3.20;;;;;;;19.15;100.00;94872.91;1022891;28;20038;-72
2022/08/15 01:44:55;;;;;;;4.05;2.97;;;;;;;19.19;100.00;94874.59;1026236;28;20064;-72
2022/08/15 01:45:26;;;;;;;10.23;3.35;;;;;;;19.15;100.00;94872.91;1025031;28;20037;-72
2022/08/15 01:45:58;;;;;;;5.93;3.53;;;;;;;19.17;100.00;94871.47;1026212;28;20639;-71
2022/08/15 01:46:30;;;;;;;4.68;3.22;;;;;;;19.20;100.00;94886.00;1028051;28;20038;-72
2022/08/15 01:47:21;;;;;;;6.20;3.20;;;;;;;19.23;100.00;94880.00;1026334;28;20023;-72
2022/08/15 01:47:54;;;;;;;6.88;3.53;;;;;;;19.25;100.00;94878.56;1020302;29;20020;-72
2022/08/15 01:48:27;;;;;;;8.77;3.20;;;;;;;19.27;100.00;94878.19;1025421;28;20539;-71
2022/08/15 01:49:05;;;;;;;5.80;3.10;;;;;;;19.24;100.00;94870.91;1029365;28;20037;-72
2022/08/15 01:49:38;;;;;;;5.60;3.13;;;;;;;19.27;100.00;94878.19;1023862;28;20023;-72
2022/08/15 01:50:09;;;;;;;4.63;3.55;;;;;;;19.31;100.00;94879.06;1017376;29;20027;-72
2022/08/15 01:50:43;;;;;;;5.85;3.35;;;;;;;19.31;100.00;94877.22;1019716;29;20669;-72
2022/08/15 01:51:13;;;;;;;7.43;3.35;;;;;;;19.31;100.00;94881.72;1015097;29;20542;-72
2022/08/15 01:51:44;;;;;;;6.07;3.15;;;;;;;19.31;100.00;94873.75;1025208;28;20019;-72
2022/08/15 01:52:15;;;;;;;4.07;3.03;;;;;;;19.31;100.00;94879.06;1024557;28;20029;-72
2022/08/15 01:52:50;;;;;;;6.95;3.53;;;;;;;19.34;100.00;94880.28;1030383;28;20114;-72
2022/08/15 01:53:32;;;;;;;6.50;3.40;;;;;;;19.33;100.00;94876.09;1016801;29;20111;-72
2022/08/15 01:54:06;;;;;;;3.92;3.03;;;;;;;19.30;100.00;94870.31;1022340;29;20035;-72
2022/08/15 01:54:40;;;;;;;5.22;3.53;;;;;;;19.32;100.00;94883.28;1024691;28;20101;-72
2022/08/15 01:55:11;;;;;;;5.28;2.97;;;;;;;19.38;100.00;94881.91;1021784;29;20133;-71
2022/08/15 01:55:54;;;;;;;7.13;3.00;;;;;;;19.38;100.00;94876.59;1019419;29;20090;-72
2022/08/15 01:56:29;;;;;;;5.32;3.17;;;;;;;19.40;100.00;94879.69;1012050;29;20042;-72
2022/08/15 01:56:59;;;;;;;3.67;3.25;;;;;;;19.41;100.00;94877.81;1020699;29;20032;-72
2022/08/15 01:57:30;;;;;;;3.65;3.03;;;;;;;19.37;100.00;94877.72;1022216;29;20043;-72
2022/08/15 01:58:02;;;;;;;3.85;3.00;;;;;;;19.41;100.00;94875.91;1023537;28;20090;-72
2022/08/15 01:58:41;;;;;;;5.13;3.05;;;;;;;19.38;100.00;94865.94;1029396;28;20030;-72
2022/08/15 01:59:14;;;;;;;3.35;2.95;;;;;;;19.43;100.00;94873.69;1034419;28;20025;-72
2022/08/15 01:59:56;;;;;;;8.10;3.35;;;;;;;19.42;100.00;94866.06;1024158;28;20611;-72
2022/08/15 02:00:27;;;;;;;4.28;3.20;;;;;;;19.45;100.00;94876.81;1022260;29;20034;-72
2022/08/15 02:01:00;;;;;;;7.57;3.30;;;;;;;19.44;100.00;94869.91;1034297;28;20037;-72
2022/08/15 02:01:36;;;;;;;6.43;3.13;;;;;;;19.45;100.00;94876.81;1023349;28;20733;-72
2022/08/15 02:02:09;;;;;;;6.32;3.20;;;;;;;19.40;100.00;94869.06;1022365;29;20023;-72
2022/08/15 02:02:40;;;;;;;6.70;3.35;;;;;;;19.43;100.00;94881.69;1025853;28;20026;-72
2022/08/15 02:03:10;;;;;;;6.03;2.78;;;;;;;19.39;100.00;94875.50;1018202;29;20032;-72
2022/08/15 02:03:41;;;;;;;6.90;3.33;;;;;;;19.42;100.00;94871.41;1025750;28;20015;-71
2022/08/15 02:04:12;;;;;;;4.70;3.13;;;;;;;19.35;100.00;94871.19;1022262;28;20035;-73
2022/08/15 02:04:43;;;;;;;5.88;3.30;;;;;;;19.42;100.00;94880.16;1021407;29;20524;-72
2022/08/15 02:05:14;;;;;;;4.05;3.20;;;;;;;19.42;100.00;94880.16;1028441;28;20089;-72
2022/08/15 02:05:44;;;;;;;4.55;2.63;;;;;;;19.41;100.00;94883.91;1028140;28;20589;-72
2022/08/15 02:06:18;;;;;;;3.80;3.10;;;;;;;19.43;100.00;94881.69;1022421;28;20065;-72
2022/08/15 02:06:48;;;;;;;7.18;3.88;;;;;;;19.43;100.00;94884.34;1027215;28;20054;-71
2022/08/15 02:07:22;;;;;;;5.40;3.20;;;;;;;19.38;100.00;94867.84;1027204;28;20572;-71
2022/08/15 02:07:53;;;;;;;6.35;3.38;;;;;;;19.44;100.00;94879.78;1030270;28;20038;-72
2022/08/15 02:08:24;;;;;;;4.10;3.20;;;;;;;19.46;100.00;94878.34;1027803;28;20480;-72
2022/08/15 02:08:55;;;;;;;4.45;3.22;;;;;;;19.41;100.00;94875.16;1030255;28;20027;-72
2022/08/15 02:09:26;;;;;;;3.80;3.13;;;;;;;19.40;100.00;94878.94;1034305;28;20541;-71
2022/08/15 02:09:56;;;;;;;4.13;3.08;;;;;;;19.45;100.00;94876.81;1029838;28;20062;-72
2022/08/15 02:10:27;;;;;;;5.43;3.72;;;;;;;19.47;100.00;94882.53;1033227;28;20026;-72
2022/08/15 02:10:57;;;;;;;8.77;3.20;;;;;;;19.49;100.00;94876.91;1022258;28;20035;-72
2022/08/15 02:11:29;;;;;;;4.13;3.22;;;;;;;19.48;100.00;94892.09;1025338;28;20035;-72
2022/08/15 02:12:00;;;;;;;4.03;2.72;;;;;;;19.42;100.00;94882.81;1020705;28;20122;-73
2022/08/15 02:12:36;;;;;;;5.85;3.00;;;;;;;19.50;100.00;94889.09;1022796;28;20070;-72
2022/08/15 02:13:06;;;;;;;4.53;3.30;;;;;;;19.49;100.00;94887.53;1022271;29;20106;-72
2022/08/15 02:13:37;;;;;;;6.57;3.30;;;;;;;19.49;100.00;94884.88;1016753;29;20605;-72
2022/08/15 02:14:08;;;;;;;5.68;3.03;;;;;;;19.30;100.00;94858.91;1019248;29;20039;-71
2022/08/15 02:14:41;;;;;;;4.95;2.95;;;;;;;19.43;100.00;94880.91;1022577;28;20039;-72
2022/08/15 02:15:14;;;;;;;5.22;3.55;;;;;;;19.44;100.00;94877.13;1024173;28;20549;-72
2022/08/15 02:15:44;;;;;;;4.57;3.20;;;;;;;19.46;100.00;94886.34;1026856;28;20125;-71
2022/08/15 02:16:16;;;;;;;3.35;2.90;;;;;;;19.52;100.00;94895.63;1030282;28;20069;-71
2022/08/15 02:16:47;;;;;;;6.63;3.00;;;;;;;19.47;100.00;94885.22;1024427;28;20404;-72
2022/08/15 02:17:17;;;;;;;5.28;3.10;;;;;;;19.53;100.00;94893.72;1026286;28;20031;-71
2022/08/15 02:17:48;;;;;;;5.25;3.30;;;;;;;19.50;100.00;94881.88;1034220;28;20053;-73
2022/08/15 02:18:18;;;;;;;6.53;3.13;;;;;;;19.55;100.00;94892.28;1025797;28;20058;-71
2022/08/15 02:18:49;;;;;;;4.22;3.38;;;;;;;19.55;100.00;94886.19;1027578;28;20097;-72
2022/08/15 02:19:22;;;;;;;7.68;3.53;;;;;;;19.52;100.00;94887.63;1026115;28;20121;-73
2022/08/15 02:19:52;;;;;;;7.78;3.72;;;;;;;19.53;100.00;94883.09;1022951;28;20516;-72
2022/08/15 02:20:23;;;;;;;7.72;3.17;;;;;;;19.53;100.00;94888.41;1026266;28;20034;-72
2022/08/15 02:20:54;;;;;;;7.10;2.97;;;;;;;19.52;100.00;94887.63;1025816;28;20035;-73
2022/08/15 02:21:25;;;;;;;5.97;3.00;;;;;;;19.50;100.00;94884.53;1017675;29;20039;-72
2022/08/15 02:21:56;;;;;;;6.55;2.97;;;;;;;19.52;100.00;94884.22;1022438;28;20020;-72
2022/08/15 02:22:26;;;;;;;5.03;3.10;;;;;;;19.55;100.00;94889.63;1023738;28;20070;-72
2022/08/15 02:22:57;;;;;;;3.72;3.03;;;;;;;19.55;100.00;94881.63;1018452;29;20646;-72
2022/08/15 02:23:27;;;;;;;7.10;3.50;;;;;;;19.49;100.00;94882.22;1014298;29;20032;-72
2022/08/15 02:23:58;;;;;;;5.20;3.60;;;;;;;19.57;100.00;94886.59;1018327;29;20134;-72
2022/08/15 02:24:28;;;;;;;5.75;3.22;;;;;;;19.58;100.00;94882.06;1018243;29;20024;-72
2022/08/15 02:24:59;;;;;;;4.38;3.15;;;;;;;19.53;100.00;94877.75;1022511;28;20043;-72
2022/08/15 02:25:29;;;;;;;4.88;3.00;;;;;;;19.61;100.00;94889.34;1022058;29;20020;-71
2022/08/15 02:26:00;;;;;;;4.68;3.13;;;;;;;19.55;100.00;94876.31;1020658;28;20023;-72
2022/08/15 02:26:30;;;;;;;6.47;3.17;;;;;;;19.62;100.00;94885.59;1026463;28;20405;-73
2022/08/15 02:27:01;;;;;;;3.35;3.05;;;;;;;19.60;100.00;94885.16;1030453;28;20056;-72
2022/08/15 02:27:33;;;;;;;7.05;3.45;;;;;;;19.55;100.00;94876.31;1025896;28;20049;-72
2022/08/15 02:28:03;;;;;;;5.18;3.50;;;;;;;19.58;100.00;94887.38;1014585;29;20020;-72
2022/08/15 02:28:34;;;;;;;6.18;3.28;;;;;;;19.60;100.00;94877.19;1018550;29;20058;-72
2022/08/15 02:29:05;;;;;;;5.50;3.28;;;;;;;19.64;100.00;94884.16;1024680;28;20066;-72
2022/08/15 02:29:36;;;;;;;3.83;2.72;;;;;;;19.64;100.00;94870.84;1018845;29;20042;-73
2022/08/15 02:30:15;;;;;;;6.78;3.85;;;;;;;19.59;100.00;94867.66;1018274;29;20019;-72
2022/08/15 02:30:45;;;;;;;5.78;3.20;;;;;;;19.60;100.00;94869.19;1026969;28;20019;-73
2022/08/15 02:31:20;;;;;;;5.70;3.10;;;;;;;19.60;100.00;94871.84;1026272;28;20417;-72
2022/08/15 02:31:53;;;;;;;3.85;3.03;;;;;;;19.61;100.00;94873.38;1022973;29;20063;-72
2022/08/15 02:32:23;;;;;;;6.10;3.08;;;;;;;19.64;100.00;94883.38;1015619;29;20475;-72
2022/08/15 02:32:56;;;;;;;6.93;3.65;;;;;;;19.63;100.00;94871.16;1019991;29;20043;-72
2022/08/15 02:33:27;;;;;;;4.07;3.35;;;;;;;19.60;100.00;94869.97;1019848;29;20046;-73
2022/08/15 02:33:59;;;;;;;10.30;3.15;;;;;;;19.62;100.00;94874.97;1023493;28;20034;-73
2022/08/15 02:34:29;;;;;;;4.60;3.30;;;;;;;19.66;100.00;94881.16;1022922;29;20020;-73
2022/08/15 02:35:00;;;;;;;4.75;3.28;;;;;;;19.64;100.00;94878.84;1023415;28;20446;-72
2022/08/15 02:35:30;;;;;;;3.50;3.00;;;;;;;19.65;100.00;94880.41;1027256;28;20050;-72
2022/08/15 02:36:04;;;;;;;7.03;3.10;;;;;;;19.66;100.00;94875.84;1027241;28;20484;-73